Silverdale, WA (98315)

2:03 AM PST on January 30, 2015 (GMT -0800)
Island Lake | Change Station
CLOSE
Current Station
Personal Weather Station
Location: Silverdale, WA
Elevation: 368 ft
Nearby Weather Stations

Elev 368 ft 47.68 °N, 122.67 °W | Updated 9 seconds ago

Partly Cloudy
Partly Cloudy
39.0 °F
Feels Like 39 °F
N
0.0
Wind Variable Wind from NE
Gusts 0.0 mph

Today
High -- | Low -- °F
--% Chance of Precip.
Yesterday
High -- | Low -- °F
Precip. -- in
7:40 AM 5:08 PM
Waxing Gibbous, 81% visible
Pressure 30.32 in
Visibility 10.0 miles
Clouds Clear
Windchill 39 °F
Dew Point 38 °F
Humidity 95%
Rainfall 0.00 in
Snow Depth Not available.
UV 0 out of 12
Pollen 5.10 out of 12
Air Quality Not available.
Flu Activity Not available.
METAR KBFI 300953Z 00000KT 10SM CLR 05/02 A3032 RMK AO2 SLP267 T00500017

More Conditions Fewer Conditions

Pressure 30.32 in
Visibility 10.0 miles
Clouds Clear
Windchill 39 °F
Dew Point 38 °F
Humidity 95%
Rainfall 0.00 in
Snow Depth Not available.
UV 0 out of 12
Pollen 5.10 out of 12
Air Quality Not available.
Flu Activity Not available.
METAR KBFI 300953Z 00000KT 10SM CLR 05/02 A3032 RMK AO2 SLP267 T00500017

More Conditions Fewer Conditions

10-Day Weather Forecast

Almanac

Astronomy

Jan. 30, 2015 Rise Set
Actual Time
Civil Twilight
Nautical Twilight
Astronomical Twilight
Moon
Length of Visible Light
Length of Day
Tomorrow will be .
, % of the Moon is Illuminated

Today's Extremes

State Highs State Lows

Community

WunderPhotos

Upload Photos

1,791,736 photos uploaded!

WunderBlogs® & News

Nearby

Air Quality

  Air Quality AQ Index Pollutant
Not available.

Snow Depth

Station Depth Elevation

Earthquake Activity

City Distance Mag. Time & Date
Minimum magnitude displayed is 2.5.

Coastal Water Temperatures

Place Temperature

Nearby Weather Stations